Item Display Status Humidity-temperature Sensor

Elevation Above Sea Level: 3 m

 

Deployed Sensor

  • Serial Number: 20370484
  • NDBC Property Number: 43928
  • Start Date: 2/9/2022 (11:05:29 Z)
  • End Date: Currently Active
Relative Humidity [%]     6 entries per hour
Showing data from 8/13/2023 (17:50:00 Z) to 8/12/2023 (00:00:01 Z)
Previous Next [ Day | 3-Days | 7-Days ]
First Last
Prev [ Day | 3-Days | 7-Days ] Next
First Last

Start Time:     :
End Time:     :     
Time (in GMT) :00 :50 :40 :30 :20 :10
Previous Next [ Day | 3-Days | 7-Days ]
First Last
Prev [ Day | 3-Days | 7-Days ] Next
First Last


123 => good data
MM => data is determined as missing
-- => data not received/configured
Back to Top Back to Top
8/13/2023 18:00 to 17:10 -- 87.94 88.29 90.01 90.69 88.88
8/13/2023 17:00 to 16:10 85.32 84.22 83.32 84.21 86.12 86.95
8/13/2023 16:00 to 15:10 87.08 89.04 89.11 89.40 88.71 88.23
8/13/2023 15:00 to 14:10 89.34 90.95 92.47 93.37 93.56 93.35
8/13/2023 14:00 to 13:10 93.45 93.60 94.33 93.96 94.17 92.83
8/13/2023 13:00 to 12:10 91.91 90.32 90.40 91.62 92.16 92.14
8/13/2023 12:00 to 11:10 91.89 91.47 90.53 88.79 88.10 88.29
8/13/2023 11:00 to 10:10 86.83 85.57 85.20 85.64 84.67 83.25
8/13/2023 10:00 to 9:10 83.88 83.96 84.40 84.70 83.06 81.98
8/13/2023 09:00 to 8:10 83.30 83.44 85.22 85.01 83.63 83.61
8/13/2023 08:00 to 7:10 83.55 83.07 81.94 82.04 84.63 87.22
8/13/2023 07:00 to 6:10 89.27 89.90 89.75 89.00 86.68 86.14
8/13/2023 06:00 to 5:10 86.30 86.41 86.47 85.99 86.10 86.74
8/13/2023 05:00 to 4:10 86.99 86.97 87.29 87.60 86.97 86.70
8/13/2023 04:00 to 3:10 86.99 86.72 85.97 87.14 86.47 85.64
8/13/2023 03:00 to 2:10 85.14 85.05 84.84 85.55 86.05 86.68
8/13/2023 02:00 to 1:10 86.64 86.72 87.08 86.83 85.99 86.93
8/13/2023 01:00 to 0:10 87.12 86.97 86.91 86.85 86.87 86.87
8/13/2023 00:00 to 23:10 87.04 88.00 88.06 87.62 86.47 86.26
8/12/2023 23:00 to 22:10 86.85 88.54 88.90 88.96 90.05 91.32
8/12/2023 22:00 to 21:10 90.84 88.12 87.75 88.52 89.92 87.75
8/12/2023 21:00 to 20:10 87.52 87.20 88.10 89.90 89.86 89.53
8/12/2023 20:00 to 19:10 89.46 90.72 88.90 87.60 86.91 88.14
8/12/2023 19:00 to 18:10 89.23 89.94 90.23 90.01 88.58 88.56
8/12/2023 18:00 to 17:10 89.09 88.50 89.69 88.86 88.14 89.36
8/12/2023 17:00 to 16:10 90.61 90.97 92.43 93.37 93.18 92.64
8/12/2023 16:00 to 15:10 92.89 93.79 94.85 95.65 96.13 96.40
8/12/2023 15:00 to 14:10 96.34 96.24 96.36 95.92 95.42 94.58
8/12/2023 14:00 to 13:10 93.85 92.95 92.49 94.12 95.11 95.61
8/12/2023 13:00 to 12:10 95.84 96.26 96.80 96.88 97.40 97.99
8/12/2023 12:00 to 11:10 97.95 97.89 97.97 97.63 97.76 97.53
8/12/2023 11:00 to 10:10 97.59 97.40 97.18 96.61 96.67 96.24
8/12/2023 10:00 to 9:10 95.75 94.35 92.99 91.84 89.06 88.35
8/12/2023 09:00 to 8:10 87.91 87.25 86.39 86.45 86.91 88.48
8/12/2023 08:00 to 7:10 89.63 90.13 89.65 88.04 87.54 87.45
8/12/2023 07:00 to 6:10 87.98 88.46 89.42 90.13 90.34 90.32
8/12/2023 06:00 to 5:10 90.05 89.80 88.86 89.53 90.44 90.57
8/12/2023 05:00 to 4:10 90.78 91.51 91.11 91.22 91.01 89.94
8/12/2023 04:00 to 3:10 87.45 87.23 87.04 87.02 86.89 86.97
8/12/2023 03:00 to 2:10 86.62 86.70 86.74 86.47 86.49 86.45
8/12/2023 02:00 to 1:10 86.64 86.33 86.49 85.93 86.39 87.25
8/12/2023 01:00 to 0:10 87.85 88.31 88.83 88.48 88.29 88.61

 

 

 

Air Temperature [°C]     6 entries per hour
Showing data from 8/13/2023 (17:50:00 Z) to 8/12/2023 (00:00:01 Z)
Previous Next [ Day | 3-Days | 7-Days ]
First Last
Prev [ Day | 3-Days | 7-Days ] Next
First Last

Start Time:     :
End Time:     :     
Time (in GMT) :00 :50 :40 :30 :20 :10
Previous Next [ Day | 3-Days | 7-Days ]
First Last
Prev [ Day | 3-Days | 7-Days ] Next
First Last


123 => good data
MM => data is determined as missing
-- => data not received/configured
Back to Top Back to Top
8/13/2023 18:00 to 17:10 -- 27.16 26.96 26.77 26.99 27.27
8/13/2023 17:00 to 16:10 27.77 27.69 27.43 27.37 27.47 27.41
8/13/2023 16:00 to 15:10 27.26 27.26 27.01 26.98 26.91 26.88
8/13/2023 15:00 to 14:10 26.62 26.58 26.42 26.23 26.22 26.26
8/13/2023 14:00 to 13:10 26.29 26.03 25.96 26.04 25.92 26.08
8/13/2023 13:00 to 12:10 26.45 26.83 26.46 26.33 26.18 26.21
8/13/2023 12:00 to 11:10 25.96 25.91 26.06 25.79 26.20 26.73
8/13/2023 11:00 to 10:10 27.00 27.02 26.75 27.05 26.84 27.21
8/13/2023 10:00 to 9:10 27.27 27.24 27.03 27.13 27.31 27.33
8/13/2023 09:00 to 8:10 27.07 26.97 26.92 27.07 26.93 27.01
8/13/2023 08:00 to 7:10 26.91 26.86 26.76 26.84 26.65 26.21
8/13/2023 07:00 to 6:10 26.11 25.90 25.92 26.53 27.23 27.30
8/13/2023 06:00 to 5:10 27.27 27.34 27.34 27.15 27.22 27.17
8/13/2023 05:00 to 4:10 27.07 26.99 27.10 26.99 27.08 26.80
8/13/2023 04:00 to 3:10 26.92 26.92 26.60 26.66 26.69 26.75
8/13/2023 03:00 to 2:10 26.50 26.61 26.64 26.76 26.41 26.55
8/13/2023 02:00 to 1:10 26.72 26.60 26.61 26.74 26.82 26.68
8/13/2023 01:00 to 0:10 26.68 26.82 26.66 26.54 26.58 26.76
8/13/2023 00:00 to 23:10 26.42 26.38 26.41 26.63 26.54 26.68
8/12/2023 23:00 to 22:10 26.63 26.38 26.52 26.33 26.28 26.15
8/12/2023 22:00 to 21:10 26.66 26.97 26.72 26.99 26.62 27.12
8/12/2023 21:00 to 20:10 27.36 27.18 27.03 26.95 26.39 26.98
8/12/2023 20:00 to 19:10 27.10 26.74 26.63 27.08 27.21 26.87
8/12/2023 19:00 to 18:10 27.00 26.84 26.88 26.79 27.31 27.00
8/12/2023 18:00 to 17:10 26.91 27.07 26.79 26.75 26.66 26.65
8/12/2023 17:00 to 16:10 26.50 26.19 25.94 26.22 25.85 25.96
8/12/2023 16:00 to 15:10 25.63 25.69 25.58 25.60 25.72 25.73
8/12/2023 15:00 to 14:10 25.55 25.64 25.69 25.63 25.85 25.61
8/12/2023 14:00 to 13:10 26.13 26.00 25.59 25.39 25.92 25.81
8/12/2023 13:00 to 12:10 25.67 25.42 25.43 25.36 25.34 25.45
8/12/2023 12:00 to 11:10 25.22 25.20 25.21 25.25 25.43 25.49
8/12/2023 11:00 to 10:10 25.67 25.43 25.68 25.51 25.55 25.42
8/12/2023 10:00 to 9:10 25.93 26.15 26.31 26.67 27.08 27.05
8/12/2023 09:00 to 8:10 27.13 27.12 27.08 26.87 27.00 26.85
8/12/2023 08:00 to 7:10 26.74 26.72 26.86 27.10 27.05 27.10
8/12/2023 07:00 to 6:10 27.24 26.93 26.79 26.89 27.00 26.90
8/12/2023 06:00 to 5:10 26.92 27.03 26.86 26.61 26.64 26.49
8/12/2023 05:00 to 4:10 26.62 26.51 26.68 26.62 26.77 26.87
8/12/2023 04:00 to 3:10 27.12 27.06 26.99 26.99 26.96 27.01
8/12/2023 03:00 to 2:10 26.89 26.91 26.91 26.76 26.93 26.73
8/12/2023 02:00 to 1:10 26.86 26.74 26.83 26.83 26.84 27.01
8/12/2023 01:00 to 0:10 26.86 26.84 26.99 27.11 27.07 27.00